Time;durP1;ratioP1;P1;durP2;ratioP2;P2;SDS_P1;SDS_P2;PMS_P1;PMS_P2;Temp;Humidity;BMP_temperature;BMP_pressure;BME280_temperature;BME280_humidity;BME280_pressure;Samples;Min_cycle;Max_cycle;Signal;HPM_P1;HPM_P2
2022/06/13 00:01:24;;;;;;;4.00;1.08;;;;;;;;;;4931270;29;20505;-80
2022/06/13 00:03:50;;;;;;;3.22;1.10;;;;;;;;;;4929720;29;20090;-81
2022/06/13 00:06:16;;;;;;;1.60;1.27;;;;;;;;;;4945202;29;20595;-80
2022/06/13 00:08:42;;;;;;;2.60;1.13;;;;;;;;;;4931341;29;20382;-81
2022/06/13 00:11:11;;;;;;;1.83;1.20;;;;;;;;;;4933485;29;20038;-80
2022/06/13 00:13:37;;;;;;;0.75;0.60;;;;;;;;;;4940324;28;20028;-81
2022/06/13 00:16:03;;;;;;;2.13;1.23;;;20.40;99.70;;;;;;4930914;29;20513;-80
2022/06/13 00:18:29;;;;;;;2.13;1.40;;;;;;;;;;4933252;29;20035;-81
2022/06/13 00:20:56;;;;;;;1.83;1.10;;;;;;;;;;4940065;29;20027;-81
2022/06/13 00:23:22;;;;;;;2.90;1.27;;;;;;;;;;4925214;29;20429;-81
2022/06/13 00:25:48;;;;;;;1.98;1.20;;;;;;;;;;4931072;29;20020;-81
2022/06/13 00:28:14;;;;;;;4.00;1.20;;;;;;;;;;4943491;29;20032;-80
2022/06/13 00:30:40;;;;;;;2.20;2.00;;;;;;;;;;4942223;29;20032;-81
2022/06/13 00:33:06;;;;;;;2.33;1.40;;;;;;;;;;4941798;29;20079;-81
2022/06/13 00:35:32;;;;;;;1.23;1.13;;;;;;;;;;4931912;28;20039;-80
2022/06/13 00:37:58;;;;;;;1.27;1.17;;;;;;;;;;4930762;29;20509;-80
2022/06/13 00:40:24;;;;;;;1.67;1.00;;;;;;;;;;4930527;29;20040;-81
2022/06/13 00:42:50;;;;;;;1.45;1.27;;;;;;;;;;4942710;29;20082;-81
2022/06/13 00:45:16;;;;;;;1.55;1.08;;;;;;;;;;4933638;29;20027;-83
2022/06/13 00:47:44;;;;;;;5.47;1.80;;;;;;;;;;4932112;29;20066;-82
2022/06/13 00:50:27;;;;;;;3.03;1.30;;;20.00;92.50;;;;;;4930238;29;20392;-80
2022/06/13 00:53:28;;;;;;;3.50;1.30;;;;;;;;;;4929398;29;20588;-81
2022/06/13 00:55:58;;;;;;;1.42;1.20;;;;;;;;;;4940297;29;20404;-81
2022/06/13 00:58:29;;;;;;;2.65;1.10;;;;;;;;;;4944546;29;20039;-81
2022/06/13 01:00:57;;;;;;;1.77;1.35;;;;;;;;;;4940936;29;20030;-81
2022/06/13 01:03:24;;;;;;;3.60;1.42;;;;;;;;;;4932845;29;20055;-81
2022/06/13 01:05:51;;;;;;;;;;;20.00;92.70;;;;;;4934698;29;20034;-81
2022/06/13 01:08:18;;;;;;;1.88;1.35;;;;;;;;;;4934348;29;19910;-80
2022/06/13 01:13:39;;;;;;;1.50;1.10;;;;;;;;;;4921591;29;20039;-80
2022/06/13 01:16:15;;;;;;;1.73;1.08;;;20.10;96.80;;;;;;4944008;29;20054;-80
2022/06/13 01:18:48;;;;;;;5.25;1.25;;;;;;;;;;4941007;29;20032;-81
2022/06/13 01:21:24;;;;;;;1.83;1.38;;;20.30;92.40;;;;;;4935323;29;20115;-81
2022/06/13 01:24:08;;;;;;;1.98;1.23;;;;;;;;;;4934437;29;20059;-82
2022/06/13 01:26:48;;;;;;;2.60;1.40;;;;;;;;;;4933474;29;20032;-81
2022/06/13 01:29:49;;;;;;;2.90;1.58;;;20.30;92.10;;;;;;4933390;29;20031;-81
2022/06/13 01:32:27;;;;;;;1.33;1.05;;;;;;;;;;4951061;28;20051;-81
2022/06/13 01:35:07;;;;;;;6.03;1.85;;;;;;;;;;4952585;28;20476;-81
2022/06/13 01:37:47;;;;;;;1.10;0.95;;;;;;;;;;4961529;28;20504;-80
2022/06/13 01:40:28;;;;;;;2.28;1.42;;;;;;;;;;4951767;28;20038;-80
2022/06/13 01:43:00;;;;;;;2.70;1.17;;;;;;;;;;4951004;28;20054;-81
2022/06/13 01:45:26;;;;;;;1.38;1.25;;;;;;;;;;4950499;28;20505;-81
2022/06/13 01:48:20;;;;;;;5.13;1.67;;;19.80;92.90;;;;;;4953332;28;20062;-80
2022/06/13 01:50:48;;;;;;;2.33;1.10;;;;;;;;;;4952913;28;20035;-81
2022/06/13 01:53:26;;;;;;;10.82;3.92;;;;;;;;;;4955039;28;20081;-82
2022/06/13 01:55:58;;;;;;;1.88;1.20;;;;;;;;;;4958639;28;20250;-81
2022/06/13 01:58:41;;;;;;;3.25;1.30;;;19.70;93.40;;;;;;4952649;28;20107;-81
2022/06/13 02:01:10;;;;;;;2.53;2.00;;;;;;;;;;4961705;28;20042;-80
2022/06/13 02:03:44;;;;;;;1.92;1.05;;;19.80;93.20;;;;;;4942635;28;20114;-80
2022/06/13 02:06:15;;;;;;;3.13;1.73;;;;;;;;;;4955516;28;20108;-81
2022/06/13 02:09:14;;;;;;;4.20;1.83;;;19.50;93.50;;;;;;4937399;28;20048;-81
2022/06/13 02:11:44;;;;;;;3.70;1.65;;;;;;;;;;4938754;29;20046;-81
2022/06/13 02:14:12;;;;;;;2.97;1.60;;;;;;;;;;4929614;29;20032;-80
2022/06/13 02:16:41;;;;;;;2.63;1.60;;;;;;;;;;4930592;29;20661;-81
2022/06/13 02:19:12;;;;;;;1.85;1.25;;;;;;;;;;4940630;28;20058;-80
2022/06/13 02:21:43;;;;;;;2.53;1.77;;;19.50;94.30;;;;;;4933400;29;20028;-80
2022/06/13 02:24:12;;;;;;;1.27;1.17;;;;;;;;;;4941808;29;20074;-81
2022/06/13 02:26:39;;;;;;;2.25;1.70;;;;;;;;;;4934797;28;20075;-80
2022/06/13 02:29:14;;;;;;;3.73;1.43;;;19.40;94.40;;;;;;4933083;28;20036;-80
2022/06/13 02:31:47;;;;;;;2.22;1.67;;;;;;;;;;4943337;29;20424;-80
2022/06/13 02:34:16;;;;;;;1.55;1.42;;;;;;;;;;4930802;29;20035;-80
2022/06/13 02:36:58;;;;;;;2.95;1.88;;;;;;;;;;4932201;29;20122;-81
2022/06/13 02:39:48;;;;;;;1.33;1.23;;;19.50;94.40;;;;;;4934716;29;20436;-81
2022/06/13 02:42:18;;;;;;;2.60;1.90;;;;;;;;;;4932311;29;20039;-81
2022/06/13 02:44:54;;;;;;;2.42;1.55;;;;;;;;;;4935011;29;20594;-82
2022/06/13 02:47:46;;;;;;;2.60;1.77;;;19.40;94.20;;;;;;4932515;29;20037;-80
2022/06/13 02:50:18;;;;;;;1.80;1.48;;;;;;;;;;4932350;28;20039;-80
2022/06/13 02:52:56;;;;;;;2.05;1.85;;;;;;;;;;4931129;29;20032;-82
2022/06/13 02:55:22;;;;;;;3.85;1.88;;;19.30;94.40;;;;;;4934484;29;20051;-80
2022/06/13 02:57:56;;;;;;;2.50;1.35;;;;;;;;;;4942654;29;20074;-80
2022/06/13 03:00:55;;;;;;;1.77;1.60;;;19.40;94.70;;;;;;4934468;29;20031;-81
2022/06/13 03:03:24;;;;;;;2.35;1.60;;;;;;;;;;4942470;29;20035;-80
2022/06/13 03:05:50;;;;;;;1.70;1.45;;;;;;;;;;4935036;29;20028;-80
2022/06/13 03:08:22;;;;;;;3.70;2.20;;;;;;;;;;4937270;29;20027;-80
2022/06/13 03:11:16;;;;;;;3.03;2.10;;;;;;;;;;4931432;29;20052;-80
2022/06/13 03:14:08;;;;;;;1.85;1.67;;;;;;;;;;4967881;28;20409;-81
2022/06/13 03:16:36;;;;;;;2.95;1.67;;;;;;;;;;4967760;28;20121;-81
2022/06/13 03:19:11;;;;;;;2.75;1.88;;;;;;;;;;4980089;28;20046;-81
2022/06/13 03:21:39;;;;;;;3.85;1.88;;;;;;;;;;4969520;28;20043;-81
2022/06/13 03:24:41;;;;;;;2.35;1.48;;;18.90;95.60;;;;;;4980426;28;20043;-81
2022/06/13 03:27:27;;;;;;;2.30;1.50;;;;;;;;;;4970631;28;20023;-81
2022/06/13 03:29:57;;;;;;;3.40;2.63;;;;;;;;;;4961172;28;20027;-80
2022/06/13 03:32:26;;;;;;;2.65;2.08;;;;;;;;;;4967604;28;20026;-80
2022/06/13 03:34:57;;;;;;;2.33;1.52;;;;;;;;;;4968315;28;20498;-81
2022/06/13 03:37:27;;;;;;;6.47;1.80;;;;;;;;;;4957356;28;20066;-80
2022/06/13 03:40:19;;;;;;;2.22;1.77;;;;;;;;;;4981055;28;20019;-82
2022/06/13 03:42:52;;;;;;;2.45;1.92;;;;;;;;;;4967749;28;20057;-80
2022/06/13 03:45:23;;;;;;;3.22;2.25;;;;;;;;;;4981091;28;20034;-81
2022/06/13 03:47:58;;;;;;;1.83;1.65;;;;;;;;;;4968436;28;20049;-80
2022/06/13 03:50:26;;;;;;;3.58;2.45;;;;;;;;;;4956036;28;20506;-80
2022/06/13 03:52:56;;;;;;;3.00;2.22;;;;;;;;;;4937901;28;20463;-81
2022/06/13 03:55:24;;;;;;;10.23;2.30;;;;;;;;;;4927251;29;20036;-81
2022/06/13 03:58:20;;;;;;;2.45;1.98;;;;;;;;;;4931646;29;20031;-81
2022/06/13 04:00:53;;;;;;;3.17;1.95;;;18.70;95.10;;;;;;4933986;29;20047;-81
2022/06/13 04:03:21;;;;;;;2.80;2.00;;;18.70;95.00;;;;;;4944868;29;20463;-81
2022/06/13 04:05:59;;;;;;;2.35;1.85;;;;;;;;;;4932400;29;20685;-81
2022/06/13 04:08:24;;;;;;;;;;;;;;;;;;4933398;29;20032;-81
2022/06/13 04:10:53;;;;;;;2.53;1.77;;;18.70;99.90;;;;;;4932883;29;19911;-81
2022/06/13 04:13:39;;;;;;;2.65;1.98;;;;;;;;;;4932979;29;20520;-80
2022/06/13 04:16:08;;;;;;;2.83;2.05;;;;;;;;;;4930592;29;20409;-81
2022/06/13 04:18:52;;;;;;;2.47;2.28;;;;;;;;;;4932410;29;20031;-80
2022/06/13 04:21:18;;;;;;;2.33;1.67;;;;;;;;;;4930523;29;20028;-81
2022/06/13 04:24:06;;;;;;;1.70;1.58;;;;;;;;;;4938476;29;20035;-82
2022/06/13 04:26:32;;;;;;;7.15;2.20;;;;;;;;;;4931964;28;20035;-80
2022/06/13 04:29:09;;;;;;;3.33;2.13;;;18.70;95.50;;;;;;4931246;29;20139;-81
2022/06/13 04:31:36;;;;;;;3.08;2.53;;;;;;;;;;4941681;28;20039;-81
2022/06/13 04:34:04;;;;;;;2.72;2.50;;;;;;;;;;4931006;29;20075;-81
2022/06/13 04:36:31;;;;;;;5.22;2.63;;;;;;;;;;4933103;29;20036;-83
2022/06/13 04:39:00;;;;;;;6.72;1.98;;;;;;;;;;4940122;29;20046;-81
2022/06/13 04:41:28;;;;;;;2.10;1.88;;;;;;;;;;4930660;29;20038;-80
2022/06/13 04:43:57;;;;;;;1.58;1.27;;;;;;;;;;4935617;28;20040;-81
2022/06/13 04:46:25;;;;;;;1.75;1.50;;;;;;;;;;4930707;29;20031;-81
2022/06/13 04:48:52;;;;;;;4.30;2.42;;;;;;;;;;4930315;29;20796;-80
2022/06/13 04:51:28;;;;;;;4.47;2.00;;;19.50;93.80;;;;;;4944068;29;20027;-81
2022/06/13 04:53:57;;;;;;;3.22;2.40;;;;;;;;;;4932908;29;20036;-80
2022/06/13 04:56:24;;;;;;;3.00;2.40;;;19.70;93.90;;;;;;4932076;29;20031;-82
2022/06/13 04:58:52;;;;;;;3.58;1.55;;;;;;;;;;4929695;29;20508;-80
2022/06/13 05:01:36;;;;;;;1.33;1.23;;;;;;;;;;4930098;29;20088;-81
2022/06/13 05:04:04;;;;;;;2.63;1.52;;;;;;;;;;4938919;29;20044;-81
2022/06/13 05:06:32;;;;;;;2.42;1.83;;;;;;;;;;4932249;29;20050;-81
2022/06/13 05:09:05;;;;;;;5.97;2.22;;;19.80;94.60;;;;;;4931452;29;20027;-81
2022/06/13 05:11:39;;;;;;;2.72;1.95;;;20.00;94.40;;;;;;4931459;29;20038;-81
2022/06/13 05:14:08;;;;;;;2.53;1.90;;;;;;;;;;4931327;29;20138;-82
2022/06/13 05:16:33;;;;;;;1.77;1.52;;;;;;;;;;4938889;28;20050;-81
2022/06/13 05:19:25;;;;;;;2.17;1.50;;;20.30;94.70;;;;;;4932400;29;20107;-80
2022/06/13 05:22:26;;;;;;;2.88;1.60;;;20.30;94.00;;;;;;4933201;29;20091;-80
2022/06/13 05:25:04;;;;;;;4.07;1.83;;;;;;;;;;4928617;29;20547;-81
2022/06/13 05:27:30;;;;;;;3.75;1.70;;;;;;;;;;4928007;29;20038;-81
2022/06/13 05:29:56;;;;;;;2.55;1.63;;;;;;;;;;4932058;29;20087;-81
2022/06/13 05:32:23;;;;;;;4.65;1.60;;;20.70;93.50;;;;;;4929002;29;20194;-91
2022/06/13 05:34:49;;;;;;;1.67;1.50;;;;;;;;;;4927843;29;20035;-73
2022/06/13 05:37:16;;;;;;;7.97;2.35;;;;;;;;;;4924656;29;20064;-74
2022/06/13 05:39:42;;;;;;;;;;;;;;;;;;4926580;29;20493;-74
2022/06/13 05:42:10;;;;;;;3.63;2.20;;;;;;;;;;4927519;29;19918;-73
2022/06/13 05:44:36;;;;;;;3.35;2.05;;;;;;;;;;4926569;29;20054;-74
2022/06/13 05:47:02;;;;;;;2.42;1.80;;;;;;;;;;4927276;29;20043;-74
2022/06/13 05:49:28;;;;;;;1.70;1.45;;;;;;;;;;4926858;29;20035;-74
2022/06/13 05:51:55;;;;;;;2.72;1.40;;;;;;;;;;4926756;29;20059;-74
2022/06/13 05:54:21;;;;;;;6.20;1.73;;;;;;;;;;4925685;29;20075;-73
2022/06/13 05:56:47;;;;;;;3.08;1.65;;;;;;;;;;4929101;29;20063;-72
2022/06/13 05:59:13;;;;;;;6.32;1.52;;;;;;;;;;4932983;29;20035;-73
2022/06/13 06:01:39;;;;;;;2.22;1.40;;;;;;;;;;4926891;29;20036;-73
2022/06/13 06:04:05;;;;;;;8.02;1.85;;;22.50;92.70;;;;;;4928065;29;20043;-74
2022/06/13 06:06:32;;;;;;;3.45;1.58;;;;;;;;;;4937853;29;20555;-73
2022/06/13 06:08:59;;;;;;;1.63;1.15;;;;;;;;;;4939129;28;20030;-72
2022/06/13 06:11:26;;;;;;;9.10;1.92;;;22.70;90.20;;;;;;4930925;28;20033;-73
2022/06/13 06:13:52;;;;;;;;;;;;;;;;;;4927606;29;20039;-73
2022/06/13 06:16:19;;;;;;;5.88;1.77;;;;;;;;;;4938174;28;20069;-73
2022/06/13 06:18:45;;;;;;;2.90;1.83;;;23.00;96.80;;;;;;4923359;29;20096;-73
2022/06/13 06:21:11;;;;;;;2.45;1.05;;;;;;;;;;4940922;29;20063;-73
2022/06/13 06:23:37;;;;;;;4.32;2.20;;;;;;;;;;4927638;28;20084;-73
2022/06/13 06:26:05;;;;;;;3.78;1.00;;;;;;;;;;4928203;29;20107;-74
2022/06/13 06:28:30;;;;;;;;;;;;;;;;;;4937267;28;20111;-73
2022/06/13 06:30:58;;;;;;;1.33;0.83;;;;;;;;;;4927377;28;19911;-74
2022/06/13 06:33:24;;;;;;;;;;;24.00;80.10;;;;;;4940445;29;20886;-74
2022/06/13 06:35:51;;;;;;;4.93;1.02;;;;;;;;;;4928533;28;19991;-70
2022/06/13 06:38:18;;;;;;;2.97;0.93;;;;;;;;;;4915593;29;20044;-71
2022/06/13 06:40:43;;;;;;;8.48;1.38;;;24.50;93.40;;;;;;4924641;29;20058;-69
2022/06/13 06:43:10;;;;;;;1.27;1.17;;;;;;;;;;4925874;29;20055;-73
2022/06/13 06:45:36;;;;;;;2.30;0.75;;;;;;;;;;4930193;29;20040;-68
2022/06/13 06:48:02;;;;;;;2.20;0.50;;;;;;;;;;4926277;29;20046;-68
2022/06/13 06:50:31;;;;;;;2.78;0.93;;;;;;;;;;4921829;29;20284;-68
2022/06/13 06:52:57;;;;;;;1.50;0.50;;;26.90;70.30;;;;;;4926885;29;20032;-68
2022/06/13 07:00:54;;;;;;;2.55;0.85;;;;;;;;;;4924784;29;20051;-68
2022/06/13 07:03:20;;;;;;;2.13;1.40;;;;;;;;;;4923540;29;20050;-68
2022/06/13 07:05:46;;;;;;;1.20;0.52;;;27.50;84.00;;;;;;4927535;29;20114;-67
2022/06/13 07:08:13;;;;;;;2.78;0.40;;;27.90;74.20;;;;;;4922476;29;20044;-67
2022/06/13 07:10:39;;;;;;;5.07;1.08;;;;;;;;;;4925871;29;20039;-69
2022/06/13 07:13:05;;;;;;;6.95;1.15;;;;;;;;;;4924709;29;20054;-68
2022/06/13 07:15:31;;;;;;;4.03;0.57;;;27.60;81.20;;;;;;4927012;29;20513;-68
2022/06/13 07:17:57;;;;;;;2.05;0.47;;;;;;;;;;4925960;29;20270;-67
2022/06/13 07:20:23;;;;;;;2.60;0.80;;;;;;;;;;4924648;28;20039;-67
2022/06/13 07:22:52;;;;;;;1.83;0.80;;;26.00;65.70;;;;;;4929487;28;20043;-73
2022/06/13 07:25:28;;;;;;;2.85;0.65;;;25.70;67.80;;;;;;4929455;29;20038;-72
2022/06/13 07:27:54;;;;;;;2.72;1.00;;;;;;;;;;4927269;29;20028;-72
2022/06/13 07:30:21;;;;;;;0.75;0.50;;;;;;;;;;4925283;29;20050;-72
2022/06/13 07:32:47;;;;;;;1.10;0.68;;;;;;;;;;4928649;29;20647;-72
2022/06/13 07:35:14;;;;;;;3.50;0.60;;;;;;;;;;4927590;29;20047;-73
2022/06/13 07:40:25;;;;;;;6.00;1.70;;;;;;;;;;4926165;29;20042;-72
2022/06/13 07:42:55;;;;;;;0.98;0.73;;;25.70;65.80;;;;;;4934792;29;20036;-73
2022/06/13 07:45:23;;;;;;;3.22;0.63;;;;;;;;;;4930970;29;20198;-73
2022/06/13 07:47:49;;;;;;;7.35;1.42;;;;;;;;;;4934777;29;20408;-73
2022/06/13 07:50:17;;;;;;;1.73;0.55;;;;;;;;;;4925390;29;20054;-73
2022/06/13 07:52:43;;;;;;;6.20;1.13;;;;;;;;;;4929380;29;20515;-72
2022/06/13 07:55:09;;;;;;;1.58;0.47;;;;;;;;;;4929892;29;20036;-73
2022/06/13 07:57:36;;;;;;;1.08;0.70;;;;;;;;;;4932892;29;20404;-72
2022/06/13 08:00:03;;;;;;;1.08;0.63;;;;;;;;;;4935868;29;20172;-74
2022/06/13 08:02:31;;;;;;;2.85;0.88;;;;;;;;;;4930959;29;20077;-77
2022/06/13 08:04:58;;;;;;;2.22;0.90;;;;;;;;;;4934017;28;20087;-73
2022/06/13 08:07:24;;;;;;;0.60;0.57;;;;;;;;;;4927433;28;20035;-74
2022/06/13 08:09:50;;;;;;;1.45;0.63;;;;;;;;;;4948626;28;20036;-74
2022/06/13 08:12:17;;;;;;;4.13;0.47;;;;;;;;;;4931427;29;20032;-74
2022/06/13 08:14:47;;;;;;;5.43;0.40;;;31.80;56.40;;;;;;4930725;29;20039;-74
2022/06/13 08:17:13;;;;;;;1.85;0.60;;;;;;;;;;4931077;29;20043;-74
2022/06/13 08:19:38;;;;;;;;;;;32.40;48.40;;;;;;4928999;28;20032;-74
2022/06/13 08:22:04;;;;;;;2.10;1.02;;;;;;;;;;4926590;29;19977;-74
2022/06/13 08:24:31;;;;;;;1.60;0.50;;;;;;;;;;4930265;29;20042;-75
2022/06/13 08:26:57;;;;;;;1.38;0.60;;;;;;;;;;4930034;28;20023;-72
2022/06/13 08:29:23;;;;;;;3.15;1.33;;;;;;;;;;4932852;29;20038;-74
2022/06/13 08:31:48;;;;;;;0.93;0.43;;;32.80;55.30;;;;;;4926700;28;20036;-73
2022/06/13 08:34:14;;;;;;;2.53;0.65;;;;;;;;;;4927040;28;20058;-74
2022/06/13 08:36:40;;;;;;;1.63;0.63;;;;;;;;;;4924547;29;20032;-74
2022/06/13 08:39:06;;;;;;;;;;;34.40;43.50;;;;;;4934216;29;20382;-75
2022/06/13 08:41:50;;;;;;;2.83;0.55;;;34.40;44.10;;;;;;4931804;29;19953;-75
2022/06/13 08:44:52;;;;;;;1.30;0.53;;;35.10;43.40;;;;;;4930389;29;20039;-74
2022/06/13 08:47:43;;;;;;;3.65;1.45;;;35.30;41.20;;;;;;4926827;29;20040;-75
2022/06/13 08:50:18;;;;;;;2.30;0.68;;;;;;;;;;4930592;28;20090;-75
2022/06/13 08:52:59;;;;;;;1.58;0.35;;;33.60;42.60;;;;;;4927857;29;20034;-75
2022/06/13 08:55:36;;;;;;;1.58;0.50;;;32.60;48.80;;;;;;4923067;29;20031;-74
2022/06/13 08:58:28;;;;;;;2.78;0.60;;;;;;;;;;4937655;29;20035;-75
2022/06/13 09:01:09;;;;;;;3.67;0.30;;;34.00;42.70;;;;;;4930448;28;20127;-75
2022/06/13 09:03:55;;;;;;;2.05;0.40;;;33.50;42.30;;;;;;4929808;29;20047;-75
2022/06/13 09:06:32;;;;;;;2.72;1.05;;;32.60;43.10;;;;;;4934324;29;20400;-75
2022/06/13 09:09:12;;;;;;;4.28;0.70;;;;;;;;;;4930004;29;20031;-75
2022/06/13 09:11:41;;;;;;;1.25;0.43;;;;;;;;;;4926995;29;20673;-73
2022/06/13 09:14:39;;;;;;;0.95;0.70;;;30.00;48.40;;;;;;4926762;29;20541;-74
2022/06/13 09:17:16;;;;;;;4.15;0.70;;;29.50;54.50;;;;;;4926109;28;20405;-75
2022/06/13 09:19:48;;;;;;;11.50;1.40;;;;;;;;;;4932619;28;20050;-74
2022/06/13 09:22:19;;;;;;;4.38;1.17;;;;;;;;;;4926722;29;20043;-75
2022/06/13 09:24:54;;;;;;;3.05;1.67;;;;;;;;;;4923830;29;20501;-74
2022/06/13 09:27:24;;;;;;;2.13;1.20;;;;;;;;;;4928862;29;20111;-75
2022/06/13 09:29:56;;;;;;;2.33;1.15;;;;;;;;;;4936177;29;20055;-74
2022/06/13 09:32:24;;;;;;;6.15;1.00;;;;;;;;;;4926173;29;20043;-74
2022/06/13 09:34:52;;;;;;;9.25;0.90;;;;;;;;;;4928202;29;20031;-74
2022/06/13 09:37:58;;;;;;;2.45;1.08;;;29.00;52.60;;;;;;4927967;29;20035;-74
2022/06/13 09:40:48;;;;;;;9.30;0.93;;;;;;;;;;4915831;29;20047;-68
2022/06/13 09:43:14;;;;;;;3.55;0.85;;;;;;;;;;4931313;28;20107;-75
2022/06/13 09:45:43;;;;;;;1.97;0.97;;;;;;;;;;4926500;29;20044;-77
2022/06/13 09:48:15;;;;;;;2.08;0.82;;;;;;;;;;4934313;29;20507;-76
2022/06/13 09:51:05;;;;;;;4.95;0.60;;;;;;;;;;4926216;29;20028;-73
2022/06/13 09:53:52;;;;;;;1.65;0.70;;;;;;;;;;4926468;29;20512;-75
2022/06/13 09:56:18;;;;;;;1.83;0.77;;;;;;;;;;4927519;29;20027;-74
2022/06/13 09:59:03;;;;;;;3.67;0.70;;;;;;;;;;4924677;29;20047;-73
2022/06/13 10:01:43;;;;;;;2.78;1.25;;;32.10;47.60;;;;;;4925347;28;20047;-75
2022/06/13 10:04:09;;;;;;;2.78;0.47;;;;;;;;;;4929876;29;20040;-79
2022/06/13 10:06:47;;;;;;;1.40;0.55;;;32.90;42.20;;;;;;4929370;29;20657;-80
2022/06/13 10:09:14;;;;;;;3.15;1.30;;;;;;;;;;4933690;29;20035;-77
2022/06/13 10:12:18;;;;;;;1.02;0.63;;;32.20;43.30;;;;;;4924650;29;20028;-77
2022/06/13 10:15:03;;;;;;;2.22;0.55;;;;;;;;;;4925624;29;20043;-77
2022/06/13 10:17:49;;;;;;;3.22;0.50;;;31.30;44.80;;;;;;4926361;29;20032;-77
2022/06/13 10:20:15;;;;;;;1.17;0.47;;;;;;;;;;4920990;29;20050;-75
2022/06/13 10:22:41;;;;;;;2.55;1.20;;;;;;;;;;4926659;29;20035;-74
2022/06/13 10:25:29;;;;;;;0.98;0.40;;;29.30;47.50;;;;;;4927767;29;20065;-74
2022/06/13 10:28:45;;;;;;;5.13;1.35;;;29.10;48.70;;;;;;4927328;29;20063;-74
2022/06/13 10:31:49;;;;;;;2.05;0.60;;;29.10;49.20;;;;;;4965244;28;20133;-73
2022/06/13 10:34:21;;;;;;;1.17;0.38;;;;;;;;;;4923276;29;20047;-76
2022/06/13 10:36:47;;;;;;;1.77;0.50;;;;;;;;;;4925377;29;20052;-74
2022/06/13 10:39:17;;;;;;;0.73;0.20;;;30.00;47.30;;;;;;4926746;29;20052;-74
2022/06/13 10:41:45;;;;;;;1.95;0.55;;;;;;;;;;4922277;29;20135;-74
2022/06/13 10:44:15;;;;;;;0.57;0.38;;;31.80;63.80;;;;;;4921437;29;20106;-74
2022/06/13 10:46:46;;;;;;;1.73;0.43;;;32.50;57.50;;;;;;4927140;29;20079;-73
2022/06/13 10:49:36;;;;;;;1.55;0.30;;;32.70;43.00;;;;;;4924463;29;20098;-74
2022/06/13 10:52:10;;;;;;;1.73;0.50;;;33.40;42.60;;;;;;4922066;29;20044;-74
2022/06/13 10:54:44;;;;;;;0.88;0.55;;;33.30;42.20;;;;;;4920260;29;20032;-74
2022/06/13 10:57:14;;;;;;;0.75;0.45;;;33.00;41.70;;;;;;4929125;29;20055;-73
2022/06/13 10:59:40;;;;;;;2.65;0.50;;;;;;;;;;4926371;29;20039;-74
2022/06/13 11:02:21;;;;;;;2.30;0.50;;;;;;;;;;4925308;29;20028;-73
2022/06/13 11:05:07;;;;;;;1.10;0.30;;;32.50;42.80;;;;;;4928516;29;20039;-74
2022/06/13 11:07:34;;;;;;;2.28;0.35;;;;;;;;;;4906013;29;20428;-73
2022/06/13 11:10:01;;;;;;;1.65;0.30;;;;;;;;;;4903995;29;20159;-74
2022/06/13 11:12:32;;;;;;;2.35;0.50;;;32.20;44.10;;;;;;4930063;29;20034;-74
2022/06/13 11:23:50;;;;;;;3.08;0.80;;;32.30;62.10;;;;;;4973533;28;20466;-73
2022/06/13 11:29:03;;;;;;;5.72;0.47;;;31.30;64.20;;;;;;4966682;28;20111;-74
2022/06/13 11:31:29;;;;;;;22.92;1.23;;;;;;;;;;4967726;28;20042;-73
2022/06/13 11:33:56;;;;;;;2.30;0.55;;;;;;;;;;4966278;28;20435;-74
2022/06/13 11:36:26;;;;;;;1.98;0.65;;;;;;;;;;4964693;28;20027;-74
2022/06/13 11:38:52;;;;;;;4.20;0.90;;;;;;;;;;4967899;28;20518;-74
2022/06/13 11:41:19;;;;;;;2.70;0.53;;;;;;;;;;4964440;28;20038;-73
2022/06/13 11:43:58;;;;;;;2.35;0.30;;;;;;;;;;4963613;28;20040;-74
2022/06/13 11:46:26;;;;;;;7.55;0.75;;;29.60;47.20;;;;;;4967976;28;20043;-73
2022/06/13 11:48:52;;;;;;;1.38;0.77;;;;;;;;;;4961733;28;20030;-74
2022/06/13 11:51:21;;;;;;;1.87;0.53;;;;;;;;;;4955811;28;20043;-76
2022/06/13 11:53:47;;;;;;;1.27;0.25;;;;;;;;;;4928700;29;20520;-75
2022/06/13 11:56:23;;;;;;;2.72;1.00;;;29.20;49.30;;;;;;4927845;29;20040;-73
2022/06/13 11:58:50;;;;;;;2.00;0.80;;;;;;;;;;4934879;28;20043;-73
2022/06/13 12:01:24;;;;;;;9.00;0.77;;;;;;;;;;4929782;29;20224;-74
2022/06/13 12:04:04;;;;;;;1.98;0.80;;;;;;;;;;4933879;29;20071;-73
2022/06/13 12:06:51;;;;;;;4.30;0.80;;;;;;;;;;4933452;29;20028;-72
2022/06/13 12:09:17;;;;;;;0.93;0.50;;;;;;;;;;4930581;29;20023;-74
2022/06/13 12:11:47;;;;;;;1.80;0.95;;;;;;;;;;4928787;29;20047;-74
2022/06/13 12:14:13;;;;;;;2.92;0.50;;;;;;;;;;4928873;29;20042;-73
2022/06/13 12:16:46;;;;;;;2.13;0.68;;;;;;;;;;4926301;29;20075;-74
2022/06/13 12:19:15;;;;;;;6.35;0.70;;;;;;;;;;4927221;29;20712;-74
2022/06/13 12:21:46;;;;;;;2.05;1.08;;;;;;;;;;4926638;29;20125;-73
2022/06/13 12:24:18;;;;;;;3.92;0.60;;;;;;;;;;4926076;28;20083;-73
2022/06/13 12:26:50;;;;;;;2.08;0.50;;;;;;;;;;4921096;29;20035;-73
2022/06/13 12:29:48;;;;;;;2.28;0.65;;;28.40;49.70;;;;;;4924859;29;20028;-73
2022/06/13 12:32:20;;;;;;;2.35;1.77;;;;;;;;;;4925792;29;20063;-73
2022/06/13 12:34:55;;;;;;;4.43;0.80;;;27.80;51.60;;;;;;4928713;29;20028;-74
2022/06/13 12:37:39;;;;;;;2.90;0.88;;;;;;;;;;4925026;29;20032;-73
2022/06/13 12:40:19;;;;;;;2.83;0.90;;;;;;;;;;4928275;29;20115;-73
2022/06/13 12:43:14;;;;;;;7.90;1.00;;;27.70;54.10;;;;;;4928183;29;20370;-71
2022/06/13 12:45:42;;;;;;;2.10;0.60;;;27.90;53.80;;;;;;4927006;29;20046;-73
2022/06/13 12:48:18;;;;;;;1.17;0.85;;;;;;;;;;4929866;29;20027;-73
2022/06/13 12:51:03;;;;;;;2.50;0.90;;;;;;;;;;4924729;29;20081;-74
2022/06/13 12:53:38;;;;;;;2.20;1.02;;;;;;;;;;4927411;29;20654;-74
2022/06/13 12:56:36;;;;;;;1.05;0.50;;;;;;;;;;4927607;29;20028;-73
2022/06/13 12:59:02;;;;;;;4.72;0.93;;;;;;;;;;4887943;29;20044;-75
2022/06/13 13:01:34;;;;;;;2.83;0.75;;;;;;;;;;4885101;29;20091;-74
2022/06/13 13:04:05;;;;;;;2.13;1.02;;;27.90;60.00;;;;;;4890934;29;20387;-74
2022/06/13 13:06:41;;;;;;;1.45;1.00;;;;;;;;;;4882975;29;20033;-74
2022/06/13 13:09:21;;;;;;;1.15;0.77;;;;;;;;;;4887739;29;20084;-76
2022/06/13 13:11:52;;;;;;;2.25;0.68;;;;;;;;;;4875613;29;20165;-75
2022/06/13 13:14:39;;;;;;;2.57;0.83;;;;;;;;;;4849240;29;1073712;-74
2022/06/13 13:17:16;;;;;;;4.78;0.98;;;;;;;;;;4887976;29;20084;-74
2022/06/13 13:19:56;;;;;;;1.30;0.55;;;;;;;;;;4893737;29;20024;-74
2022/06/13 13:22:27;;;;;;;1.38;0.90;;;;;;;;;;4886558;29;20037;-72
2022/06/13 13:24:58;;;;;;;2.88;0.90;;;27.20;52.00;;;;;;4891671;29;20033;-73
2022/06/13 13:27:26;;;;;;;1.85;0.77;;;;;;;;;;4885477;29;20080;-74
2022/06/13 13:30:04;;;;;;;2.10;0.88;;;27.30;52.50;;;;;;4887759;29;20024;-74
2022/06/13 13:32:51;;;;;;;4.25;1.65;;;27.00;69.70;;;;;;4891739;29;20119;-72
2022/06/13 13:35:17;;;;;;;;;;;;;;;;;;4912268;29;20043;-73
2022/06/13 13:37:55;;;;;;;0.63;0.60;;;;;;;;;;4928187;29;19921;-72
2022/06/13 13:40:27;;;;;;;2.08;0.98;;;;;;;;;;4927651;29;20039;-72
2022/06/13 13:43:12;;;;;;;1.17;0.70;;;;;;;;;;4926242;29;20036;-73
2022/06/13 13:45:42;;;;;;;2.42;0.73;;;;;;;;;;4924592;29;20098;-72
2022/06/13 13:48:14;;;;;;;6.28;0.98;;;;;;;;;;4929137;29;20100;-72
2022/06/13 13:50:46;;;;;;;4.30;1.27;;;;;;;;;;4925812;29;20036;-72
2022/06/13 13:53:14;;;;;;;2.55;0.80;;;;;;;;;;4928835;29;20042;-72
2022/06/13 13:55:51;;;;;;;1.45;0.80;;;;;;;;;;4928547;29;20028;-71
2022/06/13 13:58:34;;;;;;;1.77;1.15;;;;;;;;;;4926806;29;20143;-71
2022/06/13 14:01:22;;;;;;;1.02;0.63;;;26.70;54.40;;;;;;4923212;29;20083;-71
2022/06/13 14:03:48;;;;;;;1.08;0.43;;;;;;;;;;4926010;29;20138;-73
2022/06/13 14:06:18;;;;;;;0.80;0.40;;;;;;;;;;4924330;29;20160;-73
2022/06/13 14:08:44;;;;;;;1.23;0.40;;;;;;;;;;4927001;29;20027;-73
2022/06/13 14:11:11;;;;;;;2.40;0.82;;;;;;;;;;4928032;29;20396;-73
2022/06/13 14:13:41;;;;;;;3.47;0.68;;;27.10;52.60;;;;;;4925512;29;20035;-73
2022/06/13 14:16:18;;;;;;;7.75;0.85;;;;;;;;;;4926048;29;20059;-73
2022/06/13 14:19:13;;;;;;;6.57;1.27;;;;;;;;;;4915745;29;20508;-73
2022/06/13 14:21:55;;;;;;;3.33;2.03;;;;;;;;;;4920194;29;20031;-73
2022/06/13 14:24:22;;;;;;;4.15;0.80;;;;;;;;;;4926802;29;20046;-73
2022/06/13 14:26:54;;;;;;;1.40;1.02;;;;;;;;;;4925909;29;20071;-73
2022/06/13 14:29:28;;;;;;;5.32;0.85;;;27.10;53.60;;;;;;4930564;29;20024;-74
2022/06/13 14:31:57;;;;;;;1.95;0.68;;;;;;;;;;4923152;29;20032;-75
2022/06/13 14:37:47;;;;;;;4.15;0.80;;;;;;;;;;4927897;29;20097;-72
2022/06/13 14:40:42;;;;;;;2.03;0.77;;;26.90;53.90;;;;;;4924301;29;20031;-72
2022/06/13 14:43:24;;;;;;;3.10;0.90;;;;;;;;;;4927915;29;20047;-71
2022/06/13 14:45:54;;;;;;;2.60;0.65;;;;;;;;;;4928610;29;20522;-73
2022/06/13 14:48:28;;;;;;;2.75;1.38;;;;;;;;;;4929026;29;20019;-73
2022/06/13 14:50:54;;;;;;;6.18;1.40;;;;;;;;;;4921753;29;20500;-73
2022/06/13 14:53:29;;;;;;;1.13;0.47;;;;;;;;;;4928607;29;20043;-72
2022/06/13 14:56:16;;;;;;;1.27;0.80;;;;;;;;;;4927535;29;20038;-72
2022/06/13 14:58:45;;;;;;;2.05;0.95;;;;;;;;;;4920169;29;20047;-72
2022/06/13 15:01:27;;;;;;;2.08;0.68;;;;;;;;;;4923591;29;20461;-72
2022/06/13 15:03:59;;;;;;;1.33;0.77;;;;;;;;;;4926544;29;20073;-73
2022/06/13 15:06:30;;;;;;;2.13;0.70;;;;;;;;;;4923057;29;20513;-72
2022/06/13 15:09:15;;;;;;;3.80;0.85;;;;;;;;;;4925738;29;20638;-71
2022/06/13 15:11:43;;;;;;;7.80;0.90;;;;;;;;;;4918812;28;20032;-72
2022/06/13 15:14:13;;;;;;;2.70;1.33;;;;;;;;;;4923789;29;20035;-71